createdAt,value
2022-12-20T00:01:36.829Z,17.20
2022-12-20T00:04:06.676Z,17.40
2022-12-20T00:06:37.512Z,17.73
2022-12-20T00:09:08.345Z,17.63
2022-12-20T00:11:37.408Z,17.93
2022-12-20T00:14:05.392Z,17.43
2022-12-20T00:16:33.719Z,17.90
2022-12-20T00:19:04.693Z,15.97
2022-12-20T00:21:34.707Z,14.53
2022-12-20T00:24:05.204Z,14.10
2022-12-20T00:26:35.906Z,15.47
2022-12-20T00:29:04.319Z,14.63
2022-12-20T00:31:33.200Z,15.67
2022-12-20T00:34:02.417Z,16.93
2022-12-20T00:36:32.923Z,14.97
2022-12-20T00:39:01.720Z,16.00
2022-12-20T00:41:32.717Z,15.90
2022-12-20T00:44:01.034Z,15.73
2022-12-20T00:46:29.283Z,14.80
2022-12-20T00:48:57.933Z,14.93
2022-12-20T00:51:28.644Z,15.60
2022-12-20T00:53:57.318Z,15.63
2022-12-20T00:56:26.156Z,14.73
2022-12-20T00:58:56.075Z,14.13
2022-12-20T01:01:26.377Z,14.93
2022-12-20T01:03:55.452Z,14.03
2022-12-20T01:06:24.224Z,15.50
2022-12-20T01:08:52.359Z,14.47
2022-12-20T01:11:22.800Z,14.17
2022-12-20T01:13:52.818Z,14.73
2022-12-20T01:16:25.064Z,13.63
2022-12-20T01:18:54.189Z,14.20
2022-12-20T01:21:24.777Z,14.47
2022-12-20T01:23:53.115Z,14.47
2022-12-20T01:26:25.142Z,14.53
2022-12-20T01:28:56.219Z,14.33
2022-12-20T01:31:26.642Z,14.27
2022-12-20T01:33:54.911Z,14.63
2022-12-20T01:36:25.913Z,14.77
2022-12-20T01:38:57.957Z,14.70
2022-12-20T01:41:26.371Z,15.00
2022-12-20T01:43:56.499Z,13.87
2022-12-20T01:46:28.082Z,14.27
2022-12-20T01:49:01.296Z,13.67
2022-12-20T01:51:32.061Z,14.07
2022-12-20T01:54:06.025Z,13.93
2022-12-20T01:56:34.595Z,13.00
2022-12-20T01:59:03.258Z,13.17
2022-12-20T02:01:32.918Z,12.77
2022-12-20T02:04:01.174Z,12.10
2022-12-20T02:06:29.225Z,12.40
2022-12-20T02:09:02.229Z,12.80
2022-12-20T02:11:50.463Z,11.37
2022-12-20T02:14:30.089Z,11.13
2022-12-20T02:17:13.944Z,11.47
2022-12-20T02:19:58.404Z,12.20
2022-12-20T02:22:37.871Z,10.73
2022-12-20T02:25:37.243Z,10.43
2022-12-20T02:28:12.401Z,9.63
2022-12-20T02:30:46.772Z,9.10
2022-12-20T02:33:16.495Z,9.90
2022-12-20T02:35:44.623Z,9.47
2022-12-20T02:38:28.858Z,10.10
2022-12-20T02:41:02.506Z,8.90
2022-12-20T02:43:50.240Z,8.93
2022-12-20T02:46:22.318Z,8.40
2022-12-20T02:48:53.083Z,8.90
2022-12-20T02:51:24.630Z,9.10
2022-12-20T02:53:53.582Z,9.03
2022-12-20T02:56:26.963Z,9.17
2022-12-20T02:59:00.040Z,9.33
2022-12-20T03:01:37.427Z,9.53
2022-12-20T03:04:09.349Z,10.17
2022-12-20T03:06:38.836Z,10.00
2022-12-20T03:09:07.399Z,10.03
2022-12-20T03:11:35.392Z,9.87
2022-12-20T03:14:03.928Z,9.63
2022-12-20T03:16:33.330Z,9.03
2022-12-20T03:19:01.312Z,9.43
2022-12-20T03:21:29.321Z,9.63
2022-12-20T03:23:57.405Z,8.83
2022-12-20T03:26:25.900Z,9.10
2022-12-20T03:28:54.104Z,9.27
2022-12-20T03:31:22.680Z,8.43
2022-12-20T03:33:52.078Z,8.80
2022-12-20T03:36:23.743Z,8.80
2022-12-20T03:38:52.058Z,8.07
2022-12-20T03:41:21.344Z,6.93
2022-12-20T03:43:51.420Z,7.27
2022-12-20T03:46:19.893Z,7.77
2022-12-20T03:48:48.179Z,7.77
2022-12-20T03:51:17.557Z,8.17
2022-12-20T03:53:45.563Z,8.80
2022-12-20T03:56:13.701Z,7.77
2022-12-20T03:58:41.893Z,7.43
2022-12-20T04:01:22.003Z,7.60
2022-12-20T04:03:50.309Z,7.83
2022-12-20T04:06:21.455Z,6.93
2022-12-20T04:08:49.661Z,7.23
2022-12-20T04:11:17.841Z,7.40
2022-12-20T04:13:47.118Z,7.43
2022-12-20T04:16:18.005Z,7.47
2022-12-20T04:18:46.183Z,7.83
2022-12-20T04:21:14.577Z,7.07
2022-12-20T04:23:45.089Z,7.23
2022-12-20T04:26:13.568Z,6.43
2022-12-20T04:28:41.662Z,6.73
2022-12-20T04:31:09.972Z,6.63
2022-12-20T04:33:41.852Z,6.90
2022-12-20T04:36:10.446Z,6.20
2022-12-20T04:38:38.528Z,7.10
2022-12-20T04:41:08.043Z,6.70
2022-12-20T04:43:36.075Z,6.80
2022-12-20T04:46:04.264Z,6.57
2022-12-20T04:49:00.063Z,6.73
2022-12-20T04:51:20.338Z,7.53
2022-12-20T04:53:48.201Z,6.90
2022-12-20T04:56:21.060Z,7.07
2022-12-20T04:58:51.327Z,6.17
2022-12-20T05:01:20.460Z,6.53
2022-12-20T05:03:49.402Z,7.00
2022-12-20T05:06:17.895Z,6.43
2022-12-20T05:08:46.355Z,7.03
2022-12-20T05:11:14.577Z,6.83
2022-12-20T05:13:44.327Z,6.50
2022-12-20T05:16:12.521Z,6.60
2022-12-20T05:18:46.483Z,6.97
2022-12-20T05:21:34.508Z,6.60
2022-12-20T05:24:19.947Z,6.17
2022-12-20T05:26:48.486Z,5.50
2022-12-20T05:29:18.005Z,5.27
2022-12-20T05:31:46.010Z,6.13
2022-12-20T05:34:14.351Z,5.90
2022-12-20T05:36:42.562Z,6.60
2022-12-20T05:39:12.887Z,6.20
2022-12-20T05:41:41.381Z,6.33
2022-12-20T05:44:09.754Z,5.77
2022-12-20T05:46:40.276Z,5.83
2022-12-20T05:49:08.380Z,6.37
2022-12-20T05:51:36.609Z,6.10
2022-12-20T05:54:05.029Z,5.80
2022-12-20T05:56:32.972Z,6.17
2022-12-20T05:59:00.910Z,5.97
2022-12-20T06:01:29.198Z,5.43
2022-12-20T06:03:58.629Z,5.60
2022-12-20T06:06:26.680Z,5.10
2022-12-20T06:08:56.329Z,5.03
2022-12-20T06:11:29.858Z,5.40
2022-12-20T06:13:59.457Z,4.93
2022-12-20T06:16:28.590Z,5.33
2022-12-20T06:18:58.325Z,6.20
2022-12-20T06:21:28.690Z,4.90
2022-12-20T06:23:57.016Z,5.40
2022-12-20T06:26:25.086Z,6.00
2022-12-20T06:28:54.994Z,5.03
2022-12-20T06:31:23.014Z,5.33
2022-12-20T06:33:51.222Z,5.60
2022-12-20T06:36:20.688Z,5.80
2022-12-20T06:38:49.533Z,5.27
2022-12-20T06:41:17.509Z,5.13
2022-12-20T06:43:45.496Z,5.30
2022-12-20T06:46:13.486Z,5.83
2022-12-20T06:48:41.707Z,5.97
2022-12-20T06:51:11.190Z,5.43
2022-12-20T06:53:40.585Z,9.07
2022-12-20T06:56:08.911Z,7.40
2022-12-20T06:58:37.018Z,7.00
2022-12-20T07:01:05.152Z,6.20
2022-12-20T07:03:33.214Z,5.30
2022-12-20T07:06:04.011Z,6.33
2022-12-20T07:08:31.979Z,6.33
2022-12-20T07:11:06.942Z,5.60
2022-12-20T07:13:35.579Z,6.20
2022-12-20T07:16:05.164Z,6.20
2022-12-20T07:18:35.480Z,5.83
2022-12-20T07:21:05.445Z,5.50
2022-12-20T07:23:33.673Z,5.23
2022-12-20T07:26:03.934Z,5.70
2022-12-20T07:28:35.968Z,5.93
2022-12-20T07:31:04.938Z,6.10
2022-12-20T07:33:33.713Z,6.27
2022-12-20T07:36:03.177Z,6.40
2022-12-20T07:38:31.265Z,6.83
2022-12-20T07:41:00.110Z,5.97
2022-12-20T07:43:28.446Z,6.50
2022-12-20T07:45:58.672Z,6.30
2022-12-20T07:48:26.845Z,5.87
2022-12-20T07:50:58.835Z,5.30
2022-12-20T07:53:32.737Z,5.67
2022-12-20T07:56:06.501Z,5.40
2022-12-20T07:58:36.496Z,5.30
2022-12-20T08:01:06.820Z,5.87
2022-12-20T08:03:39.690Z,5.87
2022-12-20T08:06:09.731Z,5.20
2022-12-20T08:08:41.481Z,5.43
2022-12-20T08:11:11.022Z,4.63
2022-12-20T08:13:45.936Z,4.83
2022-12-20T08:16:16.137Z,5.20
2022-12-20T08:18:44.916Z,4.90
2022-12-20T08:21:14.686Z,4.80
2022-12-20T08:23:42.934Z,4.70
2022-12-20T08:26:11.106Z,4.60
2022-12-20T08:28:39.230Z,5.00
2022-12-20T08:31:09.686Z,4.60
2022-12-20T08:33:40.333Z,4.73
2022-12-20T08:36:11.315Z,5.00
2022-12-20T08:38:39.613Z,5.30
2022-12-20T08:41:11.074Z,5.47
2022-12-20T08:43:40.279Z,5.47
2022-12-20T08:46:09.085Z,5.97
2022-12-20T08:48:38.626Z,6.50
2022-12-20T08:51:10.043Z,5.93
2022-12-20T08:53:39.365Z,6.07
2022-12-20T08:56:09.316Z,5.70
2022-12-20T08:58:38.222Z,5.57
2022-12-20T09:01:08.558Z,6.13
2022-12-20T09:03:39.273Z,6.13
2022-12-20T09:06:08.974Z,6.40
2022-12-20T09:08:38.941Z,7.10
2022-12-20T09:11:09.174Z,7.07
2022-12-20T09:13:43.433Z,6.87
2022-12-20T09:16:16.859Z,6.30
2022-12-20T09:18:49.636Z,6.57
2022-12-20T09:21:17.663Z,5.60
2022-12-20T09:23:45.812Z,5.77
2022-12-20T09:26:15.306Z,6.10
2022-12-20T09:28:44.270Z,5.83
2022-12-20T09:31:13.928Z,5.40
2022-12-20T09:33:43.053Z,5.10
2022-12-20T09:36:15.493Z,5.77
2022-12-20T09:38:43.485Z,6.13
2022-12-20T09:41:29.928Z,5.90
2022-12-20T09:43:59.768Z,6.80
2022-12-20T09:46:28.579Z,6.80
2022-12-20T09:48:58.625Z,6.53
2022-12-20T09:51:44.644Z,7.07
2022-12-20T09:54:23.541Z,7.40
2022-12-20T09:56:59.341Z,9.53
2022-12-20T09:59:27.542Z,12.30
2022-12-20T10:01:55.717Z,12.33
2022-12-20T10:04:26.823Z,8.97
2022-12-20T10:07:10.957Z,41.27
2022-12-20T10:09:56.619Z,22.17
2022-12-20T10:12:34.656Z,22.03
2022-12-20T10:15:18.479Z,12.97
2022-12-20T10:17:56.716Z,13.60
2022-12-20T10:20:39.101Z,18.83
2022-12-20T10:23:14.654Z,37.47
2022-12-20T10:25:45.056Z,23.63
2022-12-20T10:28:17.342Z,22.43
2022-12-20T10:30:46.058Z,6.50
2022-12-20T10:33:20.734Z,16.20
2022-12-20T10:35:50.709Z,24.97
2022-12-20T10:38:20.962Z,8.63
2022-12-20T10:43:53.767Z,8.33
2022-12-20T10:46:22.039Z,8.20
2022-12-20T10:48:53.409Z,8.47
2022-12-20T10:51:23.107Z,8.77
2022-12-20T10:53:55.891Z,9.00
2022-12-20T10:56:27.501Z,13.73
2022-12-20T10:58:59.362Z,36.23
2022-12-20T11:01:31.781Z,17.83
2022-12-20T11:04:02.155Z,18.47
2022-12-20T11:06:42.551Z,11.73
2022-12-20T11:09:28.569Z,12.50
2022-12-20T11:12:06.101Z,12.07
2022-12-20T11:14:39.206Z,10.90
2022-12-20T11:17:23.704Z,9.37
2022-12-20T11:20:27.978Z,11.97
2022-12-20T11:23:06.560Z,10.40
2022-12-20T11:25:47.672Z,10.70
2022-12-20T11:28:32.188Z,9.70
2022-12-20T11:31:13.249Z,10.53
2022-12-20T11:34:04.563Z,10.20
2022-12-20T11:36:49.758Z,9.97
2022-12-20T11:39:27.803Z,10.83
2022-12-20T11:42:04.887Z,10.77
2022-12-20T11:44:55.506Z,11.13
2022-12-20T11:47:45.683Z,9.63
2022-12-20T11:50:27.353Z,9.07
2022-12-20T11:53:00.695Z,10.00
2022-12-20T11:55:33.146Z,8.53
2022-12-20T11:58:18.537Z,9.17
2022-12-20T12:00:54.282Z,9.93
2022-12-20T12:03:29.903Z,10.73
2022-12-20T12:06:01.946Z,13.90
2022-12-20T12:08:37.117Z,13.50
2022-12-20T12:11:39.669Z,12.30
2022-12-20T12:14:04.752Z,12.60
2022-12-20T12:16:36.808Z,13.63
2022-12-20T12:19:09.799Z,14.40
2022-12-20T12:21:44.092Z,16.43
2022-12-20T12:24:20.860Z,16.27
2022-12-20T12:26:49.223Z,19.20
2022-12-20T12:29:22.471Z,18.20
2022-12-20T12:31:55.954Z,20.47
2022-12-20T12:34:43.803Z,18.47
2022-12-20T12:37:43.423Z,17.47
2022-12-20T12:40:30.702Z,16.57
2022-12-20T12:43:30.412Z,15.87
2022-12-20T12:46:01.153Z,15.57
2022-12-20T12:48:42.067Z,15.60
2022-12-20T12:51:12.099Z,14.63
2022-12-20T12:53:45.242Z,14.30
2022-12-20T12:56:46.261Z,13.60
2022-12-20T12:59:26.110Z,13.90
2022-12-20T13:01:57.687Z,15.10
2022-12-20T13:04:28.961Z,16.43
2022-12-20T13:07:00.600Z,16.43
2022-12-20T13:09:43.233Z,16.43
2022-12-20T13:12:51.178Z,17.23
2022-12-20T13:15:51.272Z,16.53
2022-12-20T13:18:25.967Z,15.67
2022-12-20T13:21:20.071Z,14.60
2022-12-20T13:23:48.272Z,15.17
2022-12-20T13:26:44.116Z,14.73
2022-12-20T13:29:29.602Z,31.40
2022-12-20T13:31:57.795Z,32.10
2022-12-20T13:34:53.816Z,21.70
2022-12-20T13:37:29.563Z,16.23
2022-12-20T13:39:58.433Z,14.87
2022-12-20T13:42:38.694Z,15.50
2022-12-20T13:45:12.543Z,22.27
2022-12-20T13:47:47.643Z,23.27
2022-12-20T13:50:40.617Z,18.73
2022-12-20T13:53:18.948Z,20.00
2022-12-20T13:55:50.324Z,22.13
2022-12-20T13:58:21.144Z,20.93
2022-12-20T14:00:51.005Z,23.47
2022-12-20T14:03:25.469Z,25.30
2022-12-20T14:05:59.684Z,26.03
2022-12-20T14:08:31.340Z,24.73
2022-12-20T14:11:09.480Z,20.23
2022-12-20T14:13:37.533Z,18.03
2022-12-20T14:16:11.188Z,15.77
2022-12-20T14:18:39.342Z,11.47
2022-12-20T14:21:10.232Z,10.73
2022-12-20T14:23:41.413Z,9.17
2022-12-20T14:26:14.105Z,9.37
2022-12-20T14:28:45.526Z,10.80
2022-12-20T14:31:26.296Z,11.90
2022-12-20T14:34:05.664Z,11.90
2022-12-20T14:36:36.251Z,12.17
2022-12-20T14:39:24.158Z,12.03
2022-12-20T14:41:57.774Z,12.10
2022-12-20T14:44:27.497Z,11.87
2022-12-20T14:46:57.360Z,11.87
2022-12-20T14:49:30.310Z,15.57
2022-12-20T14:52:15.089Z,17.40
2022-12-20T14:57:44.315Z,11.93
2022-12-20T15:00:21.292Z,10.63
2022-12-20T15:02:53.853Z,8.90
2022-12-20T15:05:43.730Z,8.70
2022-12-20T15:08:15.152Z,8.53
2022-12-20T15:10:44.348Z,8.43
2022-12-20T15:13:15.454Z,8.40
2022-12-20T15:15:44.039Z,9.93
2022-12-20T15:18:16.306Z,13.87
2022-12-20T15:20:46.059Z,18.07
2022-12-20T15:23:17.536Z,11.07
2022-12-20T15:25:45.827Z,10.30
2022-12-20T15:28:16.957Z,8.73
2022-12-20T15:30:46.359Z,13.30
2022-12-20T15:33:17.917Z,12.87
2022-12-20T15:35:47.198Z,11.20
2022-12-20T15:38:25.357Z,12.73
2022-12-20T15:41:04.156Z,43.47
2022-12-20T15:43:38.824Z,24.43
2022-12-20T15:46:07.622Z,21.27
2022-12-20T15:48:35.701Z,34.70
2022-12-20T15:51:17.071Z,30.77
2022-12-20T15:53:46.695Z,51.80
2022-12-20T15:56:19.619Z,18.60
2022-12-20T15:58:48.384Z,18.33
2022-12-20T16:01:20.220Z,17.57
2022-12-20T16:03:48.532Z,15.63
2022-12-20T16:06:17.308Z,13.33
2022-12-20T16:08:46.875Z,13.63
2022-12-20T16:11:23.676Z,12.43
2022-12-20T16:13:52.633Z,14.70
2022-12-20T16:16:23.358Z,13.03
2022-12-20T16:18:53.777Z,12.50
2022-12-20T16:21:24.032Z,14.47
2022-12-20T16:23:55.474Z,15.00
2022-12-20T16:26:25.499Z,13.73
2022-12-20T16:28:55.240Z,15.57
2022-12-20T16:31:26.316Z,16.90
2022-12-20T16:33:56.123Z,15.67
2022-12-20T16:36:25.088Z,15.40
2022-12-20T16:38:55.152Z,15.83
2022-12-20T16:41:27.505Z,15.03
2022-12-20T16:43:57.020Z,15.37
2022-12-20T16:46:27.517Z,15.40
2022-12-20T16:48:57.067Z,14.73
2022-12-20T16:51:26.923Z,15.63
2022-12-20T16:56:47.292Z,15.13
2022-12-20T16:59:20.906Z,16.20
2022-12-20T17:01:52.447Z,16.90
2022-12-20T17:04:21.771Z,15.97
2022-12-20T17:06:50.533Z,17.57
2022-12-20T17:12:15.328Z,16.27
2022-12-20T17:14:43.477Z,18.20
2022-12-20T17:17:11.579Z,19.40
2022-12-20T17:19:39.588Z,20.43
2022-12-20T17:24:55.205Z,21.33
2022-12-20T17:27:23.236Z,20.63
2022-12-20T17:29:52.288Z,17.90
2022-12-20T17:32:22.811Z,19.17
2022-12-20T17:34:51.114Z,18.97
2022-12-20T17:37:21.604Z,19.93
2022-12-20T17:39:50.005Z,19.30
2022-12-20T17:42:19.393Z,18.10
2022-12-20T17:44:47.621Z,16.40
2022-12-20T17:47:17.818Z,16.13
2022-12-20T17:49:46.060Z,18.33
2022-12-20T17:52:15.568Z,16.10
2022-12-20T17:54:43.889Z,17.57
2022-12-20T17:57:16.173Z,21.27
2022-12-20T17:59:46.348Z,17.93
2022-12-20T18:02:22.055Z,19.77
2022-12-20T18:04:50.908Z,20.07
2022-12-20T18:07:19.122Z,20.23
2022-12-20T18:09:48.812Z,19.43
2022-12-20T18:12:17.057Z,20.50
2022-12-20T18:14:46.474Z,21.17
2022-12-20T18:17:14.683Z,20.53
2022-12-20T18:19:43.952Z,22.77
2022-12-20T18:22:12.199Z,26.87
2022-12-20T18:24:40.211Z,25.77
2022-12-20T18:27:08.258Z,24.60
2022-12-20T18:29:57.809Z,28.53
2022-12-20T18:32:28.090Z,34.27
2022-12-20T18:34:56.078Z,27.67
2022-12-20T18:37:24.257Z,22.03
2022-12-20T18:39:52.247Z,21.90
2022-12-20T18:42:20.317Z,22.87
2022-12-20T18:44:48.375Z,21.97
2022-12-20T18:47:18.164Z,21.97
2022-12-20T18:49:46.151Z,23.03
2022-12-20T18:52:14.237Z,22.63
2022-12-20T18:54:44.885Z,22.20
2022-12-20T18:57:13.151Z,21.03
2022-12-20T18:59:41.185Z,21.47
2022-12-20T19:02:12.371Z,21.60
2022-12-20T19:04:41.984Z,20.67
2022-12-20T19:07:11.203Z,20.70
2022-12-20T19:09:39.244Z,18.80
2022-12-20T19:12:07.505Z,18.50
2022-12-20T19:14:35.668Z,18.53
2022-12-20T19:17:03.905Z,17.80
2022-12-20T19:19:32.057Z,19.27
2022-12-20T19:22:01.441Z,20.03
2022-12-20T19:24:29.424Z,18.23
2022-12-20T19:26:57.659Z,19.60
2022-12-20T19:29:25.744Z,22.70
2022-12-20T19:31:53.790Z,20.80
2022-12-20T19:34:22.191Z,25.90
2022-12-20T19:36:50.359Z,24.77
2022-12-20T19:39:22.255Z,22.80
2022-12-20T19:42:21.520Z,24.30
2022-12-20T19:44:39.084Z,24.50
2022-12-20T19:47:07.371Z,29.10
2022-12-20T19:49:36.881Z,28.90
2022-12-20T19:52:05.802Z,32.13
2022-12-20T19:54:35.615Z,32.87
2022-12-20T19:57:03.712Z,33.20
2022-12-20T19:59:31.696Z,28.97
2022-12-20T20:01:59.854Z,28.40
2022-12-20T20:04:28.670Z,28.00
2022-12-20T20:06:57.529Z,26.70
2022-12-20T20:09:25.816Z,25.07
2022-12-20T20:11:55.230Z,23.93
2022-12-20T20:14:23.647Z,25.53
2022-12-20T20:16:51.681Z,25.97
2022-12-20T20:19:20.516Z,24.87
2022-12-20T20:21:49.213Z,28.43
2022-12-20T20:24:17.532Z,26.57
2022-12-20T20:26:45.602Z,25.23
2022-12-20T20:29:14.971Z,22.50
2022-12-20T20:31:43.064Z,23.27
2022-12-20T20:34:12.223Z,24.63
2022-12-20T20:36:40.377Z,29.40
2022-12-20T20:39:08.440Z,28.40
2022-12-20T20:41:37.151Z,31.87
2022-12-20T20:44:05.456Z,28.73
2022-12-20T20:46:34.876Z,31.03
2022-12-20T20:49:03.190Z,37.47
2022-12-20T20:51:31.140Z,46.10
2022-12-20T20:54:01.697Z,33.40
2022-12-20T20:56:29.699Z,32.80
2022-12-20T20:59:03.168Z,33.30
2022-12-20T21:01:36.388Z,31.47
2022-12-20T21:04:05.167Z,31.83
2022-12-20T21:06:40.404Z,32.83
2022-12-20T21:09:08.943Z,54.67
2022-12-20T21:11:37.543Z,40.97
2022-12-20T21:14:05.907Z,39.30
2022-12-20T21:16:36.938Z,40.47
2022-12-20T21:19:05.694Z,34.53
2022-12-20T21:21:33.735Z,34.43
2022-12-20T21:24:02.887Z,35.73
2022-12-20T21:26:30.948Z,36.23
2022-12-20T21:28:59.538Z,41.20
2022-12-20T21:31:28.091Z,44.13
2022-12-20T21:33:58.231Z,40.37
2022-12-20T21:36:26.415Z,42.23
2022-12-20T21:38:56.471Z,43.63
2022-12-20T21:41:26.160Z,45.07
2022-12-20T21:43:57.836Z,43.20
2022-12-20T21:46:27.217Z,42.27
2022-12-20T21:48:58.732Z,43.30
2022-12-20T21:51:28.269Z,43.23
2022-12-20T21:53:58.233Z,43.23
2022-12-20T21:56:27.965Z,40.47
2022-12-20T21:58:56.625Z,41.27
2022-12-20T22:01:26.771Z,44.67
2022-12-20T22:03:58.872Z,42.33
2022-12-20T22:06:28.191Z,42.33
2022-12-20T22:08:57.927Z,41.90
2022-12-20T22:11:26.408Z,39.47
2022-12-20T22:13:55.839Z,37.47
2022-12-20T22:16:26.457Z,38.97
2022-12-20T22:18:56.200Z,39.90
2022-12-20T22:21:27.862Z,36.03
2022-12-20T22:23:56.569Z,36.63
2022-12-20T22:26:26.821Z,36.77
2022-12-20T22:28:58.032Z,34.97
2022-12-20T22:31:26.564Z,31.40
2022-12-20T22:33:55.183Z,31.43
2022-12-20T22:36:25.738Z,31.97
2022-12-20T22:38:54.984Z,31.40
2022-12-20T22:41:27.913Z,30.80
2022-12-20T22:43:56.906Z,32.13
2022-12-20T22:46:28.449Z,30.60
2022-12-20T22:48:59.451Z,31.50
2022-12-20T22:51:31.799Z,33.03
2022-12-20T22:54:00.835Z,33.13
2022-12-20T22:56:29.003Z,34.23
2022-12-20T22:58:57.197Z,35.17
2022-12-20T23:01:25.702Z,33.50
2022-12-20T23:03:54.149Z,30.43
2022-12-20T23:06:22.892Z,28.37
2022-12-20T23:08:52.763Z,25.37
2022-12-20T23:11:40.305Z,23.53
2022-12-20T23:14:30.511Z,21.53
2022-12-20T23:16:59.302Z,22.33
2022-12-20T23:19:27.981Z,18.90
2022-12-20T23:22:13.611Z,18.80
2022-12-20T23:24:42.897Z,18.70
2022-12-20T23:27:10.924Z,18.43
2022-12-20T23:29:38.931Z,17.00
2022-12-20T23:32:07.242Z,17.97
2022-12-20T23:34:35.438Z,16.63
2022-12-20T23:37:03.359Z,17.20
2022-12-20T23:39:31.467Z,17.37
2022-12-20T23:42:00.801Z,17.27
2022-12-20T23:44:28.850Z,17.67
2022-12-20T23:46:59.153Z,18.83
2022-12-20T23:49:27.126Z,18.20
2022-12-20T23:51:55.154Z,18.53
2022-12-20T23:54:23.501Z,21.83
2022-12-20T23:56:51.505Z,20.70
2022-12-20T23:59:20.815Z,19.20
